JBU820 MDSD-TJSJ
Flight info
| Callsign | JBU820 |
|---|---|
| Flight time | 0h 40m |
| Altitude | 27000 |
| Route | MELLA2L MELLA G633 MAZ RTE12 JOSHE JOSHE3 |
| Aircraft | A320/M-SDE3FGHIRWY/LB1 |
Departure
| Time | 2026-04-30 00:01 |
|---|---|
| Airport | Las Américas International Airport (MDSD) |
Arrival
| Time | 2026-04-30 00:42 |
|---|---|
| Airport | Luis Munoz Marin International Airport (TJSJ) |
| Time | Latitude | Longitude | Altitude | Speed | Heading |
|---|---|---|---|---|---|
| 2026-04-29 23:35 | 18.42862 | -69.67445 | 59 ft | 0 kts | 305° |
| 2026-04-29 23:42 | 18.42851 | -69.67430 | 51 ft | 4 kts | 305° |
| 2026-04-29 23:43 | 18.42839 | -69.67412 | 51 ft | 4 kts | 292° |
| 2026-04-29 23:43 | 18.42835 | -69.67400 | 53 ft | 4 kts | 12° |
| 2026-04-29 23:43 | 18.42815 | -69.67405 | 54 ft | 4 kts | 14° |
| 2026-04-29 23:43 | 18.42810 | -69.67395 | 52 ft | 4 kts | 100° |
| 2026-04-29 23:44 | 18.42810 | -69.67420 | 52 ft | 2 kts | 70° |
| 2026-04-29 23:44 | 18.42807 | -69.67432 | 57 ft | 0 kts | 72° |
| 2026-04-29 23:44 | 18.42806 | -69.67433 | 57 ft | 2 kts | 72° |
| 2026-04-29 23:44 | 18.42807 | -69.67431 | 57 ft | 4 kts | 72° |
| 2026-04-29 23:45 | 18.42812 | -69.67407 | 52 ft | 4 kts | 89° |
| 2026-04-29 23:45 | 18.42811 | -69.67402 | 52 ft | 4 kts | 69° |
| 2026-04-29 23:45 | 18.42829 | -69.67402 | 52 ft | 4 kts | 13° |
| 2026-04-29 23:45 | 18.42835 | -69.67403 | 54 ft | 3 kts | 313° |
| 2026-04-29 23:46 | 18.42847 | -69.67424 | 51 ft | 4 kts | 305° |
| 2026-04-29 23:46 | 18.42861 | -69.67445 | 59 ft | 1 kts | 305° |
| 2026-04-29 23:46 | 18.42862 | -69.67445 | 59 ft | 0 kts | 305° |
| 2026-04-29 23:55 | 18.42859 | -69.67442 | 59 ft | 3 kts | 306° |
| 2026-04-29 23:55 | 18.42843 | -69.67419 | 51 ft | 4 kts | 302° |
| 2026-04-29 23:55 | 18.42830 | -69.67395 | 52 ft | 4 kts | 283° |
| 2026-04-29 23:55 | 18.42829 | -69.67372 | 52 ft | 4 kts | 259° |
| 2026-04-29 23:56 | 18.42838 | -69.67346 | 55 ft | 4 kts | 244° |
| 2026-04-29 23:56 | 18.42849 | -69.67334 | 51 ft | 4 kts | 341° |
| 2026-04-29 23:56 | 18.42850 | -69.67334 | 51 ft | 0 kts | 346° |
| 2026-04-29 23:57 | 18.42858 | -69.67335 | 57 ft | 4 kts | 349° |
| 2026-04-29 23:57 | 18.42904 | -69.67344 | 59 ft | 10 kts | 349° |
| 2026-04-29 23:58 | 18.42967 | -69.67302 | 59 ft | 14 kts | 79° |
| 2026-04-29 23:58 | 18.42954 | -69.67176 | 59 ft | 20 kts | 95° |
| 2026-04-29 23:58 | 18.42877 | -69.67056 | 58 ft | 24 kts | 153° |
| 2026-04-29 23:58 | 18.42690 | -69.66986 | 58 ft | 33 kts | 161° |
| 2026-04-29 23:59 | 18.42445 | -69.66895 | 62 ft | 41 kts | 159° |
| 2026-04-29 23:59 | 18.42154 | -69.66787 | 62 ft | 46 kts | 161° |
| 2026-04-29 23:59 | 18.41853 | -69.66680 | 64 ft | 45 kts | 161° |
| 2026-04-29 23:59 | 18.41610 | -69.66588 | 69 ft | 26 kts | 158° |
| 2026-04-30 00:00 | 18.41535 | -69.66450 | 69 ft | 20 kts | 85° |
| 2026-04-30 00:00 | 18.41623 | -69.66402 | 68 ft | 17 kts | 342° |
| 2026-04-30 00:00 | 18.41911 | -69.66507 | 67 ft | 81 kts | 340° |
| 2026-04-30 00:00 | 18.42672 | -69.66781 | 62 ft | 146 kts | 340° |
| 2026-04-30 00:01 | 18.43790 | -69.67198 | 203 ft | 185 kts | 342° |
| 2026-04-30 00:01 | 18.45023 | -69.67631 | 881 ft | 187 kts | 343° |
| 2026-04-30 00:01 | 18.46263 | -69.68079 | 1659 ft | 195 kts | 343° |
| 2026-04-30 00:01 | 18.47620 | -69.68576 | 2132 ft | 217 kts | 343° |
| 2026-04-30 00:02 | 18.49101 | -69.69121 | 2537 ft | 236 kts | 342° |
| 2026-04-30 00:02 | 18.50685 | -69.69708 | 3161 ft | 244 kts | 342° |
| 2026-04-30 00:02 | 18.52299 | -69.70307 | 3917 ft | 247 kts | 343° |
| 2026-04-30 00:02 | 18.54019 | -69.70552 | 4450 ft | 260 kts | 12° |
| 2026-04-30 00:03 | 18.55626 | -69.69673 | 5106 ft | 268 kts | 47° |
| 2026-04-30 00:03 | 18.56478 | -69.67938 | 5871 ft | 274 kts | 79° |
| 2026-04-30 00:03 | 18.56530 | -69.65921 | 6656 ft | 279 kts | 95° |
| 2026-04-30 00:03 | 18.56249 | -69.63878 | 7432 ft | 284 kts | 100° |
| 2026-04-30 00:04 | 18.55890 | -69.61814 | 8190 ft | 288 kts | 100° |
| 2026-04-30 00:04 | 18.55558 | -69.59715 | 8944 ft | 293 kts | 98° |
| 2026-04-30 00:04 | 18.55287 | -69.57569 | 9688 ft | 298 kts | 96° |
| 2026-04-30 00:04 | 18.55073 | -69.55378 | 10282 ft | 307 kts | 95° |
| 2026-04-30 00:05 | 18.54887 | -69.53049 | 10467 ft | 330 kts | 95° |
| 2026-04-30 00:05 | 18.54719 | -69.50586 | 10896 ft | 341 kts | 94° |
| 2026-04-30 00:05 | 18.54400 | -69.48128 | 11497 ft | 345 kts | 103° |
| 2026-04-30 00:05 | 18.53873 | -69.45641 | 12147 ft | 349 kts | 103° |
| 2026-04-30 00:06 | 18.53336 | -69.43136 | 12800 ft | 353 kts | 103° |
| 2026-04-30 00:06 | 18.52785 | -69.40603 | 13434 ft | 356 kts | 104° |
| 2026-04-30 00:06 | 18.52227 | -69.38050 | 14016 ft | 360 kts | 104° |
| 2026-04-30 00:06 | 18.51662 | -69.35465 | 14559 ft | 364 kts | 104° |
| 2026-04-30 00:07 | 18.51092 | -69.32849 | 15091 ft | 368 kts | 104° |
| 2026-04-30 00:07 | 18.50517 | -69.30206 | 15623 ft | 372 kts | 104° |
| 2026-04-30 00:07 | 18.49935 | -69.27531 | 16149 ft | 376 kts | 104° |
| 2026-04-30 00:07 | 18.49346 | -69.24832 | 16676 ft | 380 kts | 104° |
| 2026-04-30 00:08 | 18.48749 | -69.22100 | 17206 ft | 384 kts | 104° |
| 2026-04-30 00:08 | 18.48147 | -69.19342 | 17730 ft | 388 kts | 104° |
| 2026-04-30 00:08 | 18.47537 | -69.16555 | 18248 ft | 392 kts | 105° |
| 2026-04-30 00:08 | 18.46916 | -69.13741 | 18702 ft | 396 kts | 105° |
| 2026-04-30 00:09 | 18.46294 | -69.10902 | 19161 ft | 400 kts | 105° |
| 2026-04-30 00:09 | 18.45666 | -69.08035 | 19629 ft | 403 kts | 105° |
| 2026-04-30 00:09 | 18.45033 | -69.05141 | 20104 ft | 407 kts | 105° |
| 2026-04-30 00:09 | 18.44394 | -69.02229 | 20582 ft | 410 kts | 105° |
| 2026-04-30 00:10 | 18.43747 | -68.99288 | 21082 ft | 414 kts | 105° |
| 2026-04-30 00:10 | 18.43097 | -68.96325 | 21548 ft | 417 kts | 105° |
| 2026-04-30 00:10 | 18.42441 | -68.93339 | 22012 ft | 420 kts | 106° |
| 2026-04-30 00:10 | 18.41756 | -68.90333 | 22472 ft | 424 kts | 107° |
| 2026-04-30 00:11 | 18.41041 | -68.87308 | 22944 ft | 427 kts | 107° |
| 2026-04-30 00:11 | 18.40319 | -68.84311 | 23393 ft | 430 kts | 108° |
| 2026-04-30 00:11 | 18.39561 | -68.81199 | 23794 ft | 434 kts | 108° |
| 2026-04-30 00:11 | 18.38808 | -68.78110 | 24135 ft | 438 kts | 108° |
| 2026-04-30 00:12 | 18.38054 | -68.74994 | 24493 ft | 441 kts | 107° |
| 2026-04-30 00:12 | 18.37301 | -68.71847 | 24835 ft | 445 kts | 107° |
| 2026-04-30 00:12 | 18.36547 | -68.68676 | 25165 ft | 448 kts | 107° |
| 2026-04-30 00:12 | 18.35787 | -68.65483 | 25499 ft | 452 kts | 107° |
| 2026-04-30 00:13 | 18.35020 | -68.62259 | 25823 ft | 455 kts | 107° |
| 2026-04-30 00:13 | 18.34248 | -68.59016 | 26133 ft | 459 kts | 107° |
| 2026-04-30 00:13 | 18.33467 | -68.55748 | 26451 ft | 462 kts | 107° |
| 2026-04-30 00:13 | 18.32680 | -68.52459 | 26759 ft | 465 kts | 107° |
| 2026-04-30 00:14 | 18.31887 | -68.49146 | 26948 ft | 468 kts | 107° |
| 2026-04-30 00:14 | 18.31100 | -68.45867 | 26987 ft | 454 kts | 107° |
| 2026-04-30 00:14 | 18.30342 | -68.42711 | 26986 ft | 448 kts | 107° |
| 2026-04-30 00:14 | 18.29577 | -68.39547 | 26989 ft | 446 kts | 107° |
| 2026-04-30 00:15 | 18.28810 | -68.36392 | 26986 ft | 445 kts | 107° |
| 2026-04-30 00:15 | 18.28044 | -68.33236 | 26983 ft | 445 kts | 107° |
| 2026-04-30 00:15 | 18.27282 | -68.30079 | 26985 ft | 445 kts | 107° |
| 2026-04-30 00:15 | 18.26522 | -68.26925 | 26987 ft | 445 kts | 107° |
| 2026-04-30 00:16 | 18.25763 | -68.23774 | 26985 ft | 445 kts | 107° |
| 2026-04-30 00:16 | 18.25004 | -68.20618 | 26984 ft | 445 kts | 107° |
| 2026-04-30 00:16 | 18.24244 | -68.17463 | 26988 ft | 445 kts | 107° |
| 2026-04-30 00:16 | 18.23479 | -68.14310 | 26993 ft | 445 kts | 107° |
| 2026-04-30 00:17 | 18.22712 | -68.11155 | 26996 ft | 445 kts | 107° |
| 2026-04-30 00:17 | 18.21945 | -68.08001 | 27001 ft | 445 kts | 107° |
| 2026-04-30 00:17 | 18.21176 | -68.04843 | 27002 ft | 446 kts | 107° |
| 2026-04-30 00:17 | 18.20462 | -68.01673 | 27006 ft | 447 kts | 102° |
| 2026-04-30 00:18 | 18.20169 | -67.98407 | 27005 ft | 449 kts | 91° |
| 2026-04-30 00:18 | 18.20331 | -67.95121 | 27008 ft | 450 kts | 86° |
| 2026-04-30 00:18 | 18.20564 | -67.91838 | 27010 ft | 450 kts | 87° |
| 2026-04-30 00:18 | 18.20790 | -67.88552 | 27009 ft | 451 kts | 87° |
| 2026-04-30 00:19 | 18.21016 | -67.85267 | 27010 ft | 451 kts | 87° |
| 2026-04-30 00:19 | 18.21241 | -67.81975 | 27010 ft | 451 kts | 87° |
| 2026-04-30 00:19 | 18.21460 | -67.78687 | 27009 ft | 451 kts | 87° |
| 2026-04-30 00:19 | 18.21678 | -67.75401 | 27008 ft | 451 kts | 87° |
| 2026-04-30 00:20 | 18.21900 | -67.72107 | 27014 ft | 451 kts | 87° |
| 2026-04-30 00:20 | 18.22123 | -67.68799 | 26999 ft | 456 kts | 87° |
| 2026-04-30 00:20 | 18.22346 | -67.65478 | 26643 ft | 453 kts | 87° |
| 2026-04-30 00:20 | 18.22566 | -67.62184 | 26235 ft | 450 kts | 87° |
| 2026-04-30 00:21 | 18.22784 | -67.58914 | 25859 ft | 446 kts | 87° |
| 2026-04-30 00:21 | 18.22997 | -67.55675 | 25503 ft | 442 kts | 88° |
| 2026-04-30 00:21 | 18.23208 | -67.52458 | 25157 ft | 439 kts | 88° |
| 2026-04-30 00:21 | 18.23417 | -67.49267 | 24818 ft | 436 kts | 88° |
| 2026-04-30 00:22 | 18.23625 | -67.46102 | 24484 ft | 432 kts | 88° |
| 2026-04-30 00:22 | 18.23834 | -67.42960 | 24150 ft | 429 kts | 88° |
| 2026-04-30 00:22 | 18.24038 | -67.39881 | 23819 ft | 426 kts | 88° |
| 2026-04-30 00:22 | 18.24245 | -67.36749 | 23456 ft | 422 kts | 88° |
| 2026-04-30 00:23 | 18.24447 | -67.33679 | 23055 ft | 419 kts | 88° |
| 2026-04-30 00:23 | 18.24646 | -67.30634 | 22655 ft | 415 kts | 88° |
| 2026-04-30 00:23 | 18.24841 | -67.27630 | 22072 ft | 408 kts | 88° |
| 2026-04-30 00:23 | 18.25032 | -67.24673 | 21324 ft | 403 kts | 88° |
| 2026-04-30 00:24 | 18.25220 | -67.21797 | 20609 ft | 396 kts | 88° |
| 2026-04-30 00:24 | 18.25405 | -67.18925 | 19897 ft | 390 kts | 88° |
| 2026-04-30 00:24 | 18.25585 | -67.16103 | 19211 ft | 384 kts | 87° |
| 2026-04-30 00:24 | 18.25615 | -67.13325 | 18538 ft | 377 kts | 92° |
| 2026-04-30 00:25 | 18.25555 | -67.10591 | 17825 ft | 371 kts | 92° |
| 2026-04-30 00:25 | 18.25497 | -67.07925 | 17366 ft | 357 kts | 92° |
| 2026-04-30 00:25 | 18.25444 | -67.05364 | 16983 ft | 343 kts | 92° |
| 2026-04-30 00:25 | 18.25398 | -67.02904 | 16602 ft | 331 kts | 92° |
| 2026-04-30 00:26 | 18.25368 | -67.01288 | 16343 ft | 324 kts | 92° |
| 2026-04-30 00:26 | 18.25320 | -66.98958 | 15978 ft | 314 kts | 92° |
| 2026-04-30 00:26 | 18.25272 | -66.96729 | 15632 ft | 305 kts | 92° |
| 2026-04-30 00:26 | 18.25225 | -66.94497 | 15297 ft | 304 kts | 92° |
| 2026-04-30 00:27 | 18.25177 | -66.92241 | 15133 ft | 305 kts | 92° |
| 2026-04-30 00:27 | 18.25129 | -66.90024 | 14528 ft | 314 kts | 92° |
| 2026-04-30 00:27 | 18.25077 | -66.87668 | 13737 ft | 330 kts | 91° |
| 2026-04-30 00:27 | 18.25024 | -66.85199 | 12891 ft | 344 kts | 91° |
| 2026-04-30 00:28 | 18.24971 | -66.82709 | 12488 ft | 335 kts | 91° |
| 2026-04-30 00:28 | 18.24920 | -66.80278 | 11797 ft | 331 kts | 91° |
| 2026-04-30 00:28 | 18.24868 | -66.77873 | 11101 ft | 327 kts | 91° |
| 2026-04-30 00:28 | 18.24814 | -66.75496 | 10443 ft | 323 kts | 91° |
| 2026-04-30 00:29 | 18.24761 | -66.73175 | 10013 ft | 312 kts | 91° |
| 2026-04-30 00:29 | 18.24712 | -66.70944 | 9617 ft | 300 kts | 91° |
| 2026-04-30 00:29 | 18.24663 | -66.68788 | 9250 ft | 288 kts | 91° |
| 2026-04-30 00:29 | 18.24615 | -66.66719 | 8902 ft | 277 kts | 91° |
| 2026-04-30 00:30 | 18.24568 | -66.64728 | 8565 ft | 268 kts | 91° |
| 2026-04-30 00:30 | 18.24524 | -66.62778 | 8248 ft | 267 kts | 91° |
| 2026-04-30 00:30 | 18.24482 | -66.60836 | 7924 ft | 267 kts | 91° |
| 2026-04-30 00:30 | 18.24443 | -66.58812 | 7590 ft | 279 kts | 91° |
| 2026-04-30 00:31 | 18.24400 | -66.56780 | 7377 ft | 274 kts | 91° |
| 2026-04-30 00:31 | 18.24354 | -66.54802 | 7254 ft | 266 kts | 91° |
| 2026-04-30 00:31 | 18.24306 | -66.52888 | 7140 ft | 257 kts | 91° |
| 2026-04-30 00:31 | 18.24210 | -66.51042 | 7036 ft | 248 kts | 100° |
| 2026-04-30 00:32 | 18.23810 | -66.49321 | 7015 ft | 238 kts | 105° |
| 2026-04-30 00:32 | 18.23383 | -66.47655 | 7015 ft | 235 kts | 97° |
| 2026-04-30 00:32 | 18.23577 | -66.45982 | 7022 ft | 233 kts | 64° |
| 2026-04-30 00:32 | 18.24591 | -66.44686 | 7018 ft | 232 kts | 34° |
| 2026-04-30 00:33 | 18.25996 | -66.43839 | 7023 ft | 234 kts | 27° |
| 2026-04-30 00:33 | 18.27445 | -66.43066 | 7024 ft | 234 kts | 26° |
| 2026-04-30 00:33 | 18.28901 | -66.42300 | 7025 ft | 234 kts | 26° |
| 2026-04-30 00:33 | 18.30358 | -66.41538 | 7024 ft | 234 kts | 26° |
| 2026-04-30 00:34 | 18.31814 | -66.40777 | 7024 ft | 234 kts | 26° |
| 2026-04-30 00:34 | 18.33272 | -66.40016 | 7029 ft | 234 kts | 26° |
| 2026-04-30 00:34 | 18.34731 | -66.39255 | 7023 ft | 234 kts | 26° |
| 2026-04-30 00:34 | 18.36194 | -66.38492 | 7023 ft | 234 kts | 26° |
| 2026-04-30 00:35 | 18.37654 | -66.37731 | 7021 ft | 234 kts | 26° |
| 2026-04-30 00:35 | 18.39027 | -66.36822 | 7017 ft | 233 kts | 45° |
| 2026-04-30 00:35 | 18.39926 | -66.35399 | 6784 ft | 240 kts | 71° |
| 2026-04-30 00:35 | 18.40348 | -66.33651 | 6196 ft | 253 kts | 77° |
| 2026-04-30 00:36 | 18.40747 | -66.31826 | 5764 ft | 258 kts | 77° |
| 2026-04-30 00:36 | 18.41152 | -66.29981 | 5399 ft | 260 kts | 77° |
| 2026-04-30 00:36 | 18.41561 | -66.28126 | 5058 ft | 261 kts | 77° |
| 2026-04-30 00:36 | 18.41975 | -66.26260 | 4704 ft | 262 kts | 77° |
| 2026-04-30 00:37 | 18.42392 | -66.24388 | 4342 ft | 263 kts | 77° |
| 2026-04-30 00:37 | 18.42803 | -66.22545 | 3997 ft | 253 kts | 77° |
| 2026-04-30 00:37 | 18.43199 | -66.20778 | 3673 ft | 243 kts | 77° |
| 2026-04-30 00:37 | 18.43385 | -66.19083 | 3361 ft | 231 kts | 91° |
| 2026-04-30 00:38 | 18.43378 | -66.17426 | 3019 ft | 222 kts | 90° |
| 2026-04-30 00:38 | 18.43380 | -66.15823 | 2659 ft | 215 kts | 90° |
| 2026-04-30 00:38 | 18.43379 | -66.14285 | 2395 ft | 204 kts | 90° |
| 2026-04-30 00:38 | 18.43378 | -66.12830 | 2102 ft | 192 kts | 90° |
| 2026-04-30 00:39 | 18.43375 | -66.11487 | 1859 ft | 174 kts | 90° |
| 2026-04-30 00:39 | 18.43373 | -66.10264 | 1648 ft | 161 kts | 90° |
| 2026-04-30 00:39 | 18.43371 | -66.09114 | 1432 ft | 152 kts | 90° |
| 2026-04-30 00:39 | 18.43369 | -66.08025 | 1248 ft | 145 kts | 90° |
| 2026-04-30 00:40 | 18.43367 | -66.06968 | 1073 ft | 142 kts | 90° |
| 2026-04-30 00:40 | 18.43365 | -66.05936 | 902 ft | 141 kts | 90° |
| 2026-04-30 00:40 | 18.43363 | -66.04910 | 717 ft | 140 kts | 90° |
| 2026-04-30 00:40 | 18.43361 | -66.03886 | 533 ft | 139 kts | 89° |
| 2026-04-30 00:41 | 18.43359 | -66.02868 | 352 ft | 139 kts | 89° |
| 2026-04-30 00:41 | 18.43357 | -66.01850 | 160 ft | 138 kts | 90° |
| 2026-04-30 00:41 | 18.43354 | -66.00845 | 22 ft | 132 kts | 90° |
| 2026-04-30 00:41 | 18.43353 | -66.00032 | 19 ft | 86 kts | 90° |
| 2026-04-30 00:42 | 18.43354 | -65.99670 | 20 ft | 37 kts | 89° |
| 2026-04-30 00:42 | 18.43428 | -65.99546 | 20 ft | 14 kts | 357° |
| 2026-04-30 00:42 | 18.43460 | -65.99625 | 22 ft | 15 kts | 263° |
| 2026-04-30 00:42 | 18.43463 | -65.99741 | 19 ft | 17 kts | 271° |
| 2026-04-30 00:43 | 18.43463 | -65.99875 | 19 ft | 19 kts | 268° |
| 2026-04-30 00:43 | 18.43464 | -66.00025 | 19 ft | 22 kts | 270° |
| 2026-04-30 00:43 | 18.43463 | -66.00195 | 18 ft | 25 kts | 270° |
| 2026-04-30 00:43 | 18.43476 | -66.00380 | 20 ft | 26 kts | 272° |
| 2026-04-30 00:44 | 18.43474 | -66.00553 | 18 ft | 17 kts | 271° |
| 2026-04-30 00:44 | 18.43524 | -66.00593 | 18 ft | 8 kts | 5° |
| 2026-04-30 00:44 | 18.43544 | -66.00592 | 18 ft | 3 kts | 1° |
| 2026-04-30 00:44 | 18.43548 | -66.00592 | 18 ft | 0 kts | 0° |